sensor_id;sensor_type;location;lat;lon;timestamp;pressure;altitude;pressure_sealevel;temperature;humidity
11108;BME280;5607;48.302;14.294;2023-01-26T00:00:09;99012.38;;;2.84;100.00
11108;BME280;5607;48.302;14.294;2023-01-26T00:02:56;99012.34;;;2.86;100.00
11108;BME280;5607;48.302;14.294;2023-01-26T00:05:43;99010.81;;;2.82;100.00
11108;BME280;5607;48.302;14.294;2023-01-26T00:08:30;99013.22;;;2.85;100.00
11108;BME280;5607;48.302;14.294;2023-01-26T00:11:21;98999.91;;;2.77;100.00
11108;BME280;5607;48.302;14.294;2023-01-26T00:14:15;99001.16;;;2.85;100.00
11108;BME280;5607;48.302;14.294;2023-01-26T00:17:01;98995.22;;;2.67;100.00
11108;BME280;5607;48.302;14.294;2023-01-26T00:19:48;99004.78;;;2.65;100.00
11108;BME280;5607;48.302;14.294;2023-01-26T00:22:34;98995.97;;;2.69;100.00
11108;BME280;5607;48.302;14.294;2023-01-26T00:25:21;98990.06;;;2.67;100.00
11108;BME280;5607;48.302;14.294;2023-01-26T00:28:08;98996.56;;;2.75;100.00
11108;BME280;5607;48.302;14.294;2023-01-26T00:31:05;98982.09;;;2.72;100.00
11108;BME280;5607;48.302;14.294;2023-01-26T00:33:53;98986.31;;;2.73;100.00
11108;BME280;5607;48.302;14.294;2023-01-26T00:36:40;98983.81;;;2.72;100.00
11108;BME280;5607;48.302;14.294;2023-01-26T00:39:27;98987.50;;;2.67;100.00
11108;BME280;5607;48.302;14.294;2023-01-26T00:42:13;98976.50;;;2.64;100.00
11108;BME280;5607;48.302;14.294;2023-01-26T00:45:01;98980.13;;;2.60;100.00
11108;BME280;5607;48.302;14.294;2023-01-26T00:47:47;98987.41;;;2.69;100.00
11108;BME280;5607;48.302;14.294;2023-01-26T00:50:34;98966.59;;;2.56;100.00
11108;BME280;5607;48.302;14.294;2023-01-26T00:53:21;98981.16;;;2.57;100.00
11108;BME280;5607;48.302;14.294;2023-01-26T00:56:07;98965.91;;;2.53;100.00
11108;BME280;5607;48.302;14.294;2023-01-26T00:58:54;98980.22;;;2.58;100.00
11108;BME280;5607;48.302;14.294;2023-01-26T01:01:42;98978.78;;;2.53;100.00
11108;BME280;5607;48.302;14.294;2023-01-26T01:04:30;98974.94;;;2.61;100.00
11108;BME280;5607;48.302;14.294;2023-01-26T01:07:17;98980.97;;;2.60;100.00
11108;BME280;5607;48.302;14.294;2023-01-26T01:10:04;98977.09;;;2.69;100.00
11108;BME280;5607;48.302;14.294;2023-01-26T01:12:50;98983.19;;;2.68;100.00
11108;BME280;5607;48.302;14.294;2023-01-26T01:15:37;98984.28;;;2.80;100.00
11108;BME280;5607;48.302;14.294;2023-01-26T01:18:24;98973.19;;;2.62;100.00
11108;BME280;5607;48.302;14.294;2023-01-26T01:21:15;98980.09;;;2.61;100.00
11108;BME280;5607;48.302;14.294;2023-01-26T01:24:01;98981.56;;;2.65;100.00
11108;BME280;5607;48.302;14.294;2023-01-26T01:26:48;98970.84;;;2.57;100.00
11108;BME280;5607;48.302;14.294;2023-01-26T01:29:35;98967.50;;;2.55;100.00
11108;BME280;5607;48.302;14.294;2023-01-26T01:32:21;98968.84;;;2.62;100.00
11108;BME280;5607;48.302;14.294;2023-01-26T01:35:08;98948.56;;;2.56;100.00
11108;BME280;5607;48.302;14.294;2023-01-26T01:37:54;98971.78;;;2.72;100.00
11108;BME280;5607;48.302;14.294;2023-01-26T01:40:42;98967.28;;;2.76;100.00
11108;BME280;5607;48.302;14.294;2023-01-26T01:43:30;98962.41;;;2.54;100.00
11108;BME280;5607;48.302;14.294;2023-01-26T01:46:31;98952.06;;;2.38;100.00
11108;BME280;5607;48.302;14.294;2023-01-26T01:49:27;98971.09;;;2.35;100.00
11108;BME280;5607;48.302;14.294;2023-01-26T01:52:27;98967.75;;;2.33;100.00
11108;BME280;5607;48.302;14.294;2023-01-26T01:55:15;98969.28;;;2.37;100.00
11108;BME280;5607;48.302;14.294;2023-01-26T01:58:02;98967.25;;;2.60;100.00
11108;BME280;5607;48.302;14.294;2023-01-26T02:00:50;98957.78;;;2.60;100.00
11108;BME280;5607;48.302;14.294;2023-01-26T02:03:37;98962.66;;;2.49;100.00
11108;BME280;5607;48.302;14.294;2023-01-26T02:06:35;98957.75;;;2.45;100.00
11108;BME280;5607;48.302;14.294;2023-01-26T02:09:33;98952.41;;;2.48;100.00
11108;BME280;5607;48.302;14.294;2023-01-26T02:12:39;98950.84;;;2.45;100.00
11108;BME280;5607;48.302;14.294;2023-01-26T02:15:27;98943.41;;;2.56;100.00
11108;BME280;5607;48.302;14.294;2023-01-26T02:18:13;98930.50;;;2.56;100.00
11108;BME280;5607;48.302;14.294;2023-01-26T02:21:06;98950.63;;;2.50;100.00
11108;BME280;5607;48.302;14.294;2023-01-26T02:24:11;98940.25;;;2.34;100.00
11108;BME280;5607;48.302;14.294;2023-01-26T02:27:02;98928.19;;;2.34;100.00
11108;BME280;5607;48.302;14.294;2023-01-26T02:29:48;98930.06;;;2.48;100.00
11108;BME280;5607;48.302;14.294;2023-01-26T02:32:36;98927.88;;;2.40;100.00
11108;BME280;5607;48.302;14.294;2023-01-26T02:35:22;98927.47;;;2.48;100.00
11108;BME280;5607;48.302;14.294;2023-01-26T02:38:09;98921.16;;;2.38;100.00
11108;BME280;5607;48.302;14.294;2023-01-26T02:41:00;98904.19;;;2.34;100.00
11108;BME280;5607;48.302;14.294;2023-01-26T02:43:48;98914.69;;;2.47;100.00
11108;BME280;5607;48.302;14.294;2023-01-26T02:46:34;98912.81;;;2.33;100.00
11108;BME280;5607;48.302;14.294;2023-01-26T02:49:21;98906.47;;;2.23;100.00
11108;BME280;5607;48.302;14.294;2023-01-26T02:52:28;98893.69;;;2.21;100.00
11108;BME280;5607;48.302;14.294;2023-01-26T02:55:16;98899.03;;;2.34;100.00
11108;BME280;5607;48.302;14.294;2023-01-26T02:58:08;98866.66;;;2.12;100.00
11108;BME280;5607;48.302;14.294;2023-01-26T03:00:55;98884.81;;;2.27;100.00
11108;BME280;5607;48.302;14.294;2023-01-26T03:03:41;98889.53;;;2.19;100.00
11108;BME280;5607;48.302;14.294;2023-01-26T03:06:28;98901.69;;;2.32;100.00
11108;BME280;5607;48.302;14.294;2023-01-26T03:09:14;98896.53;;;2.32;100.00
11108;BME280;5607;48.302;14.294;2023-01-26T03:12:01;98901.78;;;2.31;100.00
11108;BME280;5607;48.302;14.294;2023-01-26T03:14:49;98899.00;;;2.18;100.00
11108;BME280;5607;48.302;14.294;2023-01-26T03:18:06;98895.38;;;2.38;100.00
11108;BME280;5607;48.302;14.294;2023-01-26T03:21:22;98900.44;;;2.39;100.00
11108;BME280;5607;48.302;14.294;2023-01-26T03:24:27;98890.03;;;2.25;100.00
11108;BME280;5607;48.302;14.294;2023-01-26T03:27:37;98887.16;;;2.47;100.00
11108;BME280;5607;48.302;14.294;2023-01-26T03:30:25;98895.38;;;2.38;100.00
11108;BME280;5607;48.302;14.294;2023-01-26T03:33:11;98881.34;;;2.10;100.00
11108;BME280;5607;48.302;14.294;2023-01-26T03:35:58;98894.69;;;2.34;100.00
11108;BME280;5607;48.302;14.294;2023-01-26T03:38:44;98888.72;;;2.01;100.00
11108;BME280;5607;48.302;14.294;2023-01-26T03:41:31;98879.06;;;2.04;100.00
11108;BME280;5607;48.302;14.294;2023-01-26T03:44:36;98884.59;;;2.14;100.00
11108;BME280;5607;48.302;14.294;2023-01-26T03:47:41;98875.97;;;1.98;100.00
11108;BME280;5607;48.302;14.294;2023-01-26T03:50:46;98888.13;;;1.96;100.00
11108;BME280;5607;48.302;14.294;2023-01-26T03:53:51;98883.56;;;2.01;100.00
11108;BME280;5607;48.302;14.294;2023-01-26T03:56:56;98881.00;;;2.01;100.00
11108;BME280;5607;48.302;14.294;2023-01-26T03:59:42;98884.69;;;2.12;100.00
11108;BME280;5607;48.302;14.294;2023-01-26T04:02:29;98874.53;;;2.09;100.00
11108;BME280;5607;48.302;14.294;2023-01-26T04:05:34;98881.28;;;2.12;100.00
11108;BME280;5607;48.302;14.294;2023-01-26T04:08:39;98887.38;;;2.27;100.00
11108;BME280;5607;48.302;14.294;2023-01-26T04:11:25;98885.16;;;2.36;100.00
11108;BME280;5607;48.302;14.294;2023-01-26T04:14:13;98879.25;;;2.34;100.00
11108;BME280;5607;48.302;14.294;2023-01-26T04:17:18;98878.91;;;2.25;100.00
11108;BME280;5607;48.302;14.294;2023-01-26T04:20:23;98879.09;;;2.37;100.00
11108;BME280;5607;48.302;14.294;2023-01-26T04:23:28;98874.81;;;2.21;100.00
11108;BME280;5607;48.302;14.294;2023-01-26T04:26:15;98873.28;;;2.16;100.00
11108;BME280;5607;48.302;14.294;2023-01-26T04:29:07;98857.53;;;2.23;100.00
11108;BME280;5607;48.302;14.294;2023-01-26T04:31:54;98864.41;;;2.22;100.00
11108;BME280;5607;48.302;14.294;2023-01-26T04:34:40;98867.38;;;2.32;100.00
11108;BME280;5607;48.302;14.294;2023-01-26T04:37:27;98864.41;;;2.22;100.00
11108;BME280;5607;48.302;14.294;2023-01-26T04:40:13;98858.66;;;2.50;100.00
11108;BME280;5607;48.302;14.294;2023-01-26T04:43:00;98857.97;;;2.31;100.00
11108;BME280;5607;48.302;14.294;2023-01-26T04:45:59;98835.75;;;2.12;100.00
11108;BME280;5607;48.302;14.294;2023-01-26T04:48:46;98859.03;;;2.27;100.00
11108;BME280;5607;48.302;14.294;2023-01-26T04:51:34;98853.16;;;2.25;100.00
11108;BME280;5607;48.302;14.294;2023-01-26T04:54:21;98840.81;;;2.30;100.00
11108;BME280;5607;48.302;14.294;2023-01-26T04:57:07;98853.06;;;2.26;100.00
11108;BME280;5607;48.302;14.294;2023-01-26T04:59:54;98849.97;;;2.20;100.00
11108;BME280;5607;48.302;14.294;2023-01-26T05:02:40;98843.75;;;2.24;100.00
11108;BME280;5607;48.302;14.294;2023-01-26T05:05:27;98839.75;;;2.18;100.00
11108;BME280;5607;48.302;14.294;2023-01-26T05:08:13;98846.56;;;2.19;100.00
11108;BME280;5607;48.302;14.294;2023-01-26T05:11:00;98853.47;;;2.19;100.00
11108;BME280;5607;48.302;14.294;2023-01-26T05:13:47;98843.31;;;2.15;100.00
11108;BME280;5607;48.302;14.294;2023-01-26T05:16:34;98823.25;;;2.05;100.00
11108;BME280;5607;48.302;14.294;2023-01-26T05:19:20;98835.19;;;1.90;100.00
11108;BME280;5607;48.302;14.294;2023-01-26T05:22:07;98828.91;;;1.78;100.00
11108;BME280;5607;48.302;14.294;2023-01-26T05:24:53;98851.56;;;2.05;100.00
11108;BME280;5607;48.302;14.294;2023-01-26T05:27:40;98844.44;;;1.94;100.00
11108;BME280;5607;48.302;14.294;2023-01-26T05:30:26;98830.25;;;1.85;100.00
11108;BME280;5607;48.302;14.294;2023-01-26T05:33:13;98834.28;;;1.91;100.00
11108;BME280;5607;48.302;14.294;2023-01-26T05:36:06;98847.50;;;2.01;100.00
11108;BME280;5607;48.302;14.294;2023-01-26T05:38:53;98847.75;;;1.96;100.00
11108;BME280;5607;48.302;14.294;2023-01-26T05:41:40;98850.09;;;2.01;100.00
11108;BME280;5607;48.302;14.294;2023-01-26T05:44:28;98852.13;;;2.11;100.00
11108;BME280;5607;48.302;14.294;2023-01-26T05:47:15;98845.47;;;2.07;100.00
11108;BME280;5607;48.302;14.294;2023-01-26T05:50:03;98845.28;;;2.10;100.00
11108;BME280;5607;48.302;14.294;2023-01-26T05:52:50;98851.03;;;2.15;100.00
11108;BME280;5607;48.302;14.294;2023-01-26T05:55:37;98831.75;;;2.07;100.00
11108;BME280;5607;48.302;14.294;2023-01-26T05:58:23;98851.88;;;2.16;100.00
11108;BME280;5607;48.302;14.294;2023-01-26T06:01:10;98852.94;;;2.12;100.00
11108;BME280;5607;48.302;14.294;2023-01-26T06:03:56;98846.78;;;2.14;100.00
11108;BME280;5607;48.302;14.294;2023-01-26T06:06:43;98846.72;;;2.16;100.00
11108;BME280;5607;48.302;14.294;2023-01-26T06:09:29;98849.28;;;2.16;100.00
11108;BME280;5607;48.302;14.294;2023-01-26T06:12:18;98848.53;;;2.14;100.00
11108;BME280;5607;48.302;14.294;2023-01-26T06:15:05;98847.84;;;2.10;100.00
11108;BME280;5607;48.302;14.294;2023-01-26T06:17:52;98848.63;;;2.12;100.00
11108;BME280;5607;48.302;14.294;2023-01-26T06:20:39;98843.16;;;2.19;100.00
11108;BME280;5607;48.302;14.294;2023-01-26T06:23:26;98850.94;;;2.17;100.00
11108;BME280;5607;48.302;14.294;2023-01-26T06:26:12;98845.13;;;2.13;100.00
11108;BME280;5607;48.302;14.294;2023-01-26T06:29:00;98817.53;;;2.00;100.00
11108;BME280;5607;48.302;14.294;2023-01-26T06:31:47;98843.63;;;2.09;100.00
11108;BME280;5607;48.302;14.294;2023-01-26T06:34:34;98844.81;;;2.20;100.00
11108;BME280;5607;48.302;14.294;2023-01-26T06:37:20;98847.81;;;2.12;100.00
11108;BME280;5607;48.302;14.294;2023-01-26T06:40:07;98838.47;;;2.09;100.00
11108;BME280;5607;48.302;14.294;2023-01-26T06:42:54;98845.28;;;2.10;100.00
11108;BME280;5607;48.302;14.294;2023-01-26T06:45:41;98844.34;;;1.96;100.00
11108;BME280;5607;48.302;14.294;2023-01-26T06:48:29;98840.94;;;1.95;100.00
11108;BME280;5607;48.302;14.294;2023-01-26T06:54:04;98848.72;;;2.27;100.00
11108;BME280;5607;48.302;14.294;2023-01-26T06:56:51;98854.44;;;2.16;100.00
11108;BME280;5607;48.302;14.294;2023-01-26T06:59:37;98850.19;;;2.15;100.00
11108;BME280;5607;48.302;14.294;2023-01-26T07:02:24;98845.47;;;2.07;100.00
11108;BME280;5607;48.302;14.294;2023-01-26T07:05:10;98847.63;;;2.15;100.00
11108;BME280;5607;48.302;14.294;2023-01-26T07:07:57;98856.63;;;2.24;100.00
11108;BME280;5607;48.302;14.294;2023-01-26T07:10:49;98858.41;;;2.06;100.00
11108;BME280;5607;48.302;14.294;2023-01-26T07:13:35;98850.53;;;2.09;100.00
11108;BME280;5607;48.302;14.294;2023-01-26T07:16:22;98840.91;;;2.12;100.00
11108;BME280;5607;48.302;14.294;2023-01-26T07:19:09;98839.25;;;2.27;100.00
11108;BME280;5607;48.302;14.294;2023-01-26T07:29:21;98848.03;;;2.07;100.00
11108;BME280;5607;48.302;14.294;2023-01-26T07:32:08;98842.38;;;2.16;100.00
11108;BME280;5607;48.302;14.294;2023-01-26T07:34:54;98840.22;;;2.09;100.00
11108;BME280;5607;48.302;14.294;2023-01-26T07:37:41;98839.75;;;2.18;100.00
11108;BME280;5607;48.302;14.294;2023-01-26T07:40:27;98845.56;;;2.22;100.00
11108;BME280;5607;48.302;14.294;2023-01-26T07:43:14;98835.34;;;2.20;100.00
11108;BME280;5607;48.302;14.294;2023-01-26T07:46:01;98839.69;;;2.35;100.00
11108;BME280;5607;48.302;14.294;2023-01-26T07:48:48;98839.63;;;2.37;100.00
11108;BME280;5607;48.302;14.294;2023-01-26T07:51:34;98833.03;;;2.47;100.00
11108;BME280;5607;48.302;14.294;2023-01-26T07:54:21;98838.38;;;2.44;100.00
11108;BME280;5607;48.302;14.294;2023-01-26T07:57:08;98836.03;;;2.39;100.00
11108;BME280;5607;48.302;14.294;2023-01-26T07:59:54;98832.22;;;2.31;100.00
11108;BME280;5607;48.302;14.294;2023-01-26T08:02:41;98827.00;;;1.99;100.00
11108;BME280;5607;48.302;14.294;2023-01-26T08:05:28;98828.16;;;2.09;100.00
11108;BME280;5607;48.302;14.294;2023-01-26T08:08:16;98829.09;;;2.08;100.00
11108;BME280;5607;48.302;14.294;2023-01-26T08:11:03;98823.38;;;2.19;100.00
11108;BME280;5607;48.302;14.294;2023-01-26T08:13:50;98836.13;;;2.05;100.00
11108;BME280;5607;48.302;14.294;2023-01-26T08:16:36;98809.75;;;1.84;100.00
11108;BME280;5607;48.302;14.294;2023-01-26T08:19:23;98828.09;;;2.11;100.00
11108;BME280;5607;48.302;14.294;2023-01-26T08:22:09;98836.66;;;2.11;100.00
11108;BME280;5607;48.302;14.294;2023-01-26T08:24:56;98829.16;;;2.07;100.00
11108;BME280;5607;48.302;14.294;2023-01-26T08:27:45;98832.56;;;2.07;100.00
11108;BME280;5607;48.302;14.294;2023-01-26T08:30:31;98835.97;;;2.08;100.00
11108;BME280;5607;48.302;14.294;2023-01-26T08:33:19;98838.47;;;2.09;100.00
11108;BME280;5607;48.302;14.294;2023-01-26T08:36:07;98825.50;;;2.11;100.00
11108;BME280;5607;48.302;14.294;2023-01-26T08:38:55;98822.59;;;2.17;100.00
11108;BME280;5607;48.302;14.294;2023-01-26T08:41:42;98832.22;;;2.31;100.00
11108;BME280;5607;48.302;14.294;2023-01-26T08:44:29;98828.72;;;2.32;100.00
11108;BME280;5607;48.302;14.294;2023-01-26T08:47:15;98825.81;;;2.05;100.00
11108;BME280;5607;48.302;14.294;2023-01-26T08:50:03;98828.50;;;2.03;100.00
11108;BME280;5607;48.302;14.294;2023-01-26T08:52:50;98826.94;;;1.83;100.00
11108;BME280;5607;48.302;14.294;2023-01-26T08:55:37;98822.53;;;1.85;100.00
11108;BME280;5607;48.302;14.294;2023-01-26T08:58:23;98820.78;;;1.86;100.00
11108;BME280;5607;48.302;14.294;2023-01-26T09:01:12;98824.66;;;1.95;100.00
11108;BME280;5607;48.302;14.294;2023-01-26T09:04:00;98813.63;;;2.08;100.00
11108;BME280;5607;48.302;14.294;2023-01-26T09:06:48;98812.28;;;2.01;100.00
11108;BME280;5607;48.302;14.294;2023-01-26T09:09:34;98804.53;;;2.19;100.00
11108;BME280;5607;48.302;14.294;2023-01-26T09:12:21;98789.13;;;2.01;100.00
11108;BME280;5607;48.302;14.294;2023-01-26T09:15:08;98804.56;;;2.17;100.00
11108;BME280;5607;48.302;14.294;2023-01-26T09:17:54;98814.56;;;2.23;100.00
11108;BME280;5607;48.302;14.294;2023-01-26T09:20:41;98813.16;;;2.33;100.00
11108;BME280;5607;48.302;14.294;2023-01-26T09:23:27;98817.63;;;2.30;100.00
11108;BME280;5607;48.302;14.294;2023-01-26T09:26:14;98816.75;;;2.31;100.00
11108;BME280;5607;48.302;14.294;2023-01-26T09:29:01;98818.16;;;2.21;100.00
11108;BME280;5607;48.302;14.294;2023-01-26T09:31:49;98820.72;;;2.21;100.00
11108;BME280;5607;48.302;14.294;2023-01-26T09:34:35;98817.41;;;2.19;100.00
11108;BME280;5607;48.302;14.294;2023-01-26T09:37:22;98809.66;;;2.19;100.00
11108;BME280;5607;48.302;14.294;2023-01-26T09:40:16;98807.41;;;2.28;100.00
11108;BME280;5607;48.302;14.294;2023-01-26T09:49:05;98819.84;;;2.69;100.00
11108;BME280;5607;48.302;14.294;2023-01-26T09:55:03;98811.75;;;2.59;100.00
11108;BME280;5607;48.302;14.294;2023-01-26T10:00:47;98811.59;;;2.62;100.00
11108;BME280;5607;48.302;14.294;2023-01-26T10:03:45;98791.00;;;2.62;100.00
11108;BME280;5607;48.302;14.294;2023-01-26T10:06:33;98808.19;;;2.62;100.00
11108;BME280;5607;48.302;14.294;2023-01-26T10:09:27;98794.53;;;2.60;100.00
11108;BME280;5607;48.302;14.294;2023-01-26T10:18:18;98797.03;;;2.93;100.00
11108;BME280;5607;48.302;14.294;2023-01-26T10:21:08;98795.63;;;2.72;100.00
11108;BME280;5607;48.302;14.294;2023-01-26T10:23:58;98764.97;;;2.51;100.00
11108;BME280;5607;48.302;14.294;2023-01-26T10:26:46;98792.31;;;2.54;100.00
11108;BME280;5607;48.302;14.294;2023-01-26T10:29:33;98792.63;;;2.48;100.00
11108;BME280;5607;48.302;14.294;2023-01-26T10:32:19;98787.31;;;2.66;100.00
11108;BME280;5607;48.302;14.294;2023-01-26T10:35:14;98784.38;;;2.73;100.00
11108;BME280;5607;48.302;14.294;2023-01-26T10:38:01;98787.22;;;2.84;100.00
11108;BME280;5607;48.302;14.294;2023-01-26T10:40:48;98778.75;;;2.66;100.00
11108;BME280;5607;48.302;14.294;2023-01-26T10:43:39;98789.88;;;2.66;100.00
11108;BME280;5607;48.302;14.294;2023-01-26T10:46:33;98786.81;;;2.76;100.00
11108;BME280;5607;48.302;14.294;2023-01-26T10:49:20;98782.81;;;2.70;100.00
11108;BME280;5607;48.302;14.294;2023-01-26T10:55:19;98766.19;;;2.76;100.00
11108;BME280;5607;48.302;14.294;2023-01-26T11:07:55;98762.47;;;2.95;100.00
11108;BME280;5607;48.302;14.294;2023-01-26T11:10:51;98766.91;;;2.93;100.00
11108;BME280;5607;48.302;14.294;2023-01-26T11:13:38;98764.56;;;3.05;100.00
11108;BME280;5607;48.302;14.294;2023-01-26T11:16:26;98756.78;;;2.75;100.00
11108;BME280;5607;48.302;14.294;2023-01-26T11:25:34;98749.63;;;2.80;100.00
11108;BME280;5607;48.302;14.294;2023-01-26T11:28:32;98753.34;;;2.90;100.00
11108;BME280;5607;48.302;14.294;2023-01-26T11:44:45;98732.72;;;2.90;100.00
11108;BME280;5607;48.302;14.294;2023-01-26T11:47:43;98727.81;;;2.55;100.00
11108;BME280;5607;48.302;14.294;2023-01-26T12:00:19;98708.50;;;2.47;100.00
11108;BME280;5607;48.302;14.294;2023-01-26T12:03:38;98709.34;;;2.47;100.00
11108;BME280;5607;48.302;14.294;2023-01-26T12:06:36;98706.31;;;2.70;100.00
11108;BME280;5607;48.302;14.294;2023-01-26T12:12:33;98705.50;;;2.54;100.00
11108;BME280;5607;48.302;14.294;2023-01-26T12:15:35;98698.63;;;2.55;100.00
11108;BME280;5607;48.302;14.294;2023-01-26T12:18:30;98703.25;;;2.64;100.00
11108;BME280;5607;48.302;14.294;2023-01-26T12:21:21;98698.91;;;2.64;100.00
11108;BME280;5607;48.302;14.294;2023-01-26T12:24:11;98692.25;;;2.60;100.00
11108;BME280;5607;48.302;14.294;2023-01-26T12:27:02;98694.81;;;2.14;100.00
11108;BME280;5607;48.302;14.294;2023-01-26T12:30:04;98687.78;;;2.18;100.00
11108;BME280;5607;48.302;14.294;2023-01-26T12:32:51;98688.47;;;2.36;100.00
11108;BME280;5607;48.302;14.294;2023-01-26T12:42:02;98681.78;;;1.86;100.00
11108;BME280;5607;48.302;14.294;2023-01-26T12:44:59;98673.97;;;2.03;100.00
11108;BME280;5607;48.302;14.294;2023-01-26T12:47:54;98675.63;;;2.04;100.00
11108;BME280;5607;48.302;14.294;2023-01-26T12:50:46;98676.31;;;2.24;100.00
11108;BME280;5607;48.302;14.294;2023-01-26T12:56:45;98685.50;;;2.43;100.00
11108;BME280;5607;48.302;14.294;2023-01-26T12:59:35;98679.53;;;2.43;100.00
11108;BME280;5607;48.302;14.294;2023-01-26T13:02:30;98679.25;;;2.48;100.00
11108;BME280;5607;48.302;14.294;2023-01-26T13:05:31;98672.63;;;2.43;100.00
11108;BME280;5607;48.302;14.294;2023-01-26T13:11:40;98677.34;;;2.51;100.00
11108;BME280;5607;48.302;14.294;2023-01-26T13:14:58;98672.34;;;2.48;100.00
11108;BME280;5607;48.302;14.294;2023-01-26T13:17:54;98673.97;;;2.65;100.00
11108;BME280;5607;48.302;14.294;2023-01-26T13:20:46;98675.72;;;2.64;100.00
11108;BME280;5607;48.302;14.294;2023-01-26T13:23:41;98679.38;;;2.60;100.00
11108;BME280;5607;48.302;14.294;2023-01-26T13:35:00;98676.38;;;2.22;100.00
11108;BME280;5607;48.302;14.294;2023-01-26T13:40:40;98667.63;;;2.40;100.00
11108;BME280;5607;48.302;14.294;2023-01-26T13:43:30;98677.81;;;2.12;100.00
11108;BME280;5607;48.302;14.294;2023-01-26T13:46:25;98680.44;;;2.26;100.00
11108;BME280;5607;48.302;14.294;2023-01-26T13:49:38;98681.84;;;2.32;100.00
11108;BME280;5607;48.302;14.294;2023-01-26T13:52:27;98676.13;;;2.27;100.00
11108;BME280;5607;48.302;14.294;2023-01-26T13:55:23;98674.28;;;2.29;100.00
11108;BME280;5607;48.302;14.294;2023-01-26T13:58:12;98676.28;;;2.39;100.00
11108;BME280;5607;48.302;14.294;2023-01-26T14:01:04;98679.94;;;2.35;100.00
11108;BME280;5607;48.302;14.294;2023-01-26T14:04:02;98651.97;;;2.13;100.00
11108;BME280;5607;48.302;14.294;2023-01-26T14:06:53;98684.00;;;2.39;100.00
11108;BME280;5607;48.302;14.294;2023-01-26T14:09:47;98678.06;;;2.53;100.00
11108;BME280;5607;48.302;14.294;2023-01-26T14:12:43;98683.75;;;2.44;100.00
11108;BME280;5607;48.302;14.294;2023-01-26T14:15:31;98675.44;;;2.39;100.00
11108;BME280;5607;48.302;14.294;2023-01-26T14:18:19;98682.31;;;2.54;100.00
11108;BME280;5607;48.302;14.294;2023-01-26T14:21:18;98686.81;;;2.51;100.00
11108;BME280;5607;48.302;14.294;2023-01-26T14:24:07;98675.44;;;2.39;100.00
11108;BME280;5607;48.302;14.294;2023-01-26T14:26:54;98688.09;;;2.43;100.00
11108;BME280;5607;48.302;14.294;2023-01-26T14:29:41;98678.94;;;2.38;100.00
11108;BME280;5607;48.302;14.294;2023-01-26T14:32:29;98662.03;;;2.18;100.00
11108;BME280;5607;48.302;14.294;2023-01-26T14:35:21;98678.75;;;2.41;100.00
11108;BME280;5607;48.302;14.294;2023-01-26T14:40:58;98682.78;;;2.31;100.00
11108;BME280;5607;48.302;14.294;2023-01-26T14:43:48;98683.91;;;2.41;100.00
11108;BME280;5607;48.302;14.294;2023-01-26T14:50:00;98661.44;;;2.13;100.00
11108;BME280;5607;48.302;14.294;2023-01-26T14:52:48;98679.47;;;2.13;100.00
11108;BME280;5607;48.302;14.294;2023-01-26T14:55:35;98667.06;;;2.04;100.00
11108;BME280;5607;48.302;14.294;2023-01-26T14:58:30;98681.94;;;2.14;100.00
11108;BME280;5607;48.302;14.294;2023-01-26T15:01:25;98686.19;;;2.31;100.00
11108;BME280;5607;48.302;14.294;2023-01-26T15:04:24;98675.28;;;2.26;100.00
11108;BME280;5607;48.302;14.294;2023-01-26T15:07:35;98686.69;;;2.22;100.00
11108;BME280;5607;48.302;14.294;2023-01-26T15:10:42;98682.53;;;2.20;100.00
11108;BME280;5607;48.302;14.294;2023-01-26T15:13:29;98685.91;;;2.36;100.00
11108;BME280;5607;48.302;14.294;2023-01-26T15:16:25;98687.59;;;2.37;100.00
11108;BME280;5607;48.302;14.294;2023-01-26T15:19:22;98681.47;;;2.24;100.00
11108;BME280;5607;48.302;14.294;2023-01-26T15:22:18;98687.59;;;2.37;100.00
11108;BME280;5607;48.302;14.294;2023-01-26T15:25:16;98688.09;;;2.28;100.00
11108;BME280;5607;48.302;14.294;2023-01-26T15:28:16;98695.06;;;2.26;100.00
11108;BME280;5607;48.302;14.294;2023-01-26T15:31:03;98686.84;;;2.03;100.00
11108;BME280;5607;48.302;14.294;2023-01-26T15:33:52;98686.75;;;2.21;100.00
11108;BME280;5607;48.302;14.294;2023-01-26T15:36:49;98691.59;;;2.27;100.00
11108;BME280;5607;48.302;14.294;2023-01-26T15:39:36;98691.50;;;2.28;100.00
11108;BME280;5607;48.302;14.294;2023-01-26T15:42:24;98686.09;;;2.33;100.00
11108;BME280;5607;48.302;14.294;2023-01-26T15:45:33;98691.34;;;2.15;100.00
11108;BME280;5607;48.302;14.294;2023-01-26T15:48:22;98685.69;;;2.09;100.00
11108;BME280;5607;48.302;14.294;2023-01-26T15:51:12;98675.72;;;1.87;100.00
11108;BME280;5607;48.302;14.294;2023-01-26T15:53:59;98685.75;;;1.76;100.00
11108;BME280;5607;48.302;14.294;2023-01-26T15:56:46;98689.44;;;1.87;100.00
11108;BME280;5607;48.302;14.294;2023-01-26T15:59:32;98686.22;;;1.67;100.00
11108;BME280;5607;48.302;14.294;2023-01-26T16:02:19;98696.56;;;1.82;100.00
11108;BME280;5607;48.302;14.294;2023-01-26T16:05:12;98691.38;;;1.67;100.00
11108;BME280;5607;48.302;14.294;2023-01-26T16:07:59;98695.88;;;1.79;100.00
11108;BME280;5607;48.302;14.294;2023-01-26T16:10:46;98695.81;;;1.96;100.00
11108;BME280;5607;48.302;14.294;2023-01-26T16:13:32;98679.09;;;1.72;100.00
11108;BME280;5607;48.302;14.294;2023-01-26T16:16:19;98697.91;;;1.89;100.00
11108;BME280;5607;48.302;14.294;2023-01-26T16:19:06;98700.38;;;1.91;100.00
11108;BME280;5607;48.302;14.294;2023-01-26T16:21:54;98697.91;;;1.89;100.00
11108;BME280;5607;48.302;14.294;2023-01-26T16:24:40;98676.94;;;1.80;100.00
11108;BME280;5607;48.302;14.294;2023-01-26T16:27:27;98700.81;;;1.99;100.00
11108;BME280;5607;48.302;14.294;2023-01-26T16:30:14;98705.69;;;2.04;100.00
11108;BME280;5607;48.302;14.294;2023-01-26T16:33:00;98694.63;;;1.86;100.00
11108;BME280;5607;48.302;14.294;2023-01-26T16:35:47;98700.47;;;1.89;100.00
11108;BME280;5607;48.302;14.294;2023-01-26T16:38:33;98697.97;;;1.72;100.00
11108;BME280;5607;48.302;14.294;2023-01-26T16:41:24;98704.03;;;1.71;100.00
11108;BME280;5607;48.302;14.294;2023-01-26T16:44:14;98700.06;;;1.81;100.00